Nizhnekamsk, Russia
Current Conditions -  °F | °C
As of 9:00 PM on Friday 28 Nov 2014 (Local Time) from UWKE Reporting Station
Haze Haze  
Wind Chill: 11°   Ceiling: 200
Heat Index: 21°   Visibility: 2.2mi
Dew Point: 21°   Wind: 9mph
Humidity: 100%   Direction: 220°SW
Pressure: 30.59"   Gusts: NA
Location:  55.64°N, 51.82°E
Report Text: UWKE 281800Z 22004MPS 3600 BR OVC002 M06/M06 Q1036 TEMPO 0700FZFG VV002 RMK QBB080 QFE760/1013 21310050
Loading
Personal Weather Stations






























Interactive Weather Map New forecast layout! Learn more

10-Day Weather Forecast

Advertisements
Track Severe Weather on mobile